Time;durP1;ratioP1;P1;durP2;ratioP2;P2;SDS_P1;SDS_P2;PMS_P1;PMS_P2;Temp;Humidity;BMP_temperature;BMP_pressure;BME280_temperature;BME280_humidity;BME280_pressure;Samples;Min_cycle;Max_cycle;Signal;HPM_P1;HPM_P2
2023/07/04 00:01:04;;;;;;;11.40;4.00;;;13.30;99.90;;;;;;4994585;28;20436;-55
2023/07/04 00:03:30;;;;;;;8.43;4.10;;;13.30;99.90;;;;;;4994308;28;20436;-55
2023/07/04 00:05:56;;;;;;;10.83;3.80;;;13.30;99.90;;;;;;4994676;28;20456;-56
2023/07/04 00:08:27;;;;;;;10.70;4.20;;;13.20;99.90;;;;;;4994251;28;20646;-55
2023/07/04 00:10:56;;;;;;;8.00;4.23;;;13.20;1.00;;;;;;5036234;28;20508;-55
2023/07/04 00:13:23;;;;;;;6.60;3.97;;;13.30;1.00;;;;;;5079630;28;20431;-54
2023/07/04 00:15:51;;;;;;;7.27;4.00;;;13.20;1.00;;;;;;5030156;28;20477;-56
2023/07/04 00:18:22;;;;;;;7.67;3.60;;;13.20;99.90;;;;;;5094516;28;20439;-56
2023/07/04 00:20:55;;;;;;;7.40;4.50;;;13.20;99.90;;;;;;5092625;28;20464;-55
2023/07/04 00:23:25;;;;;;;7.83;4.00;;;13.10;1.00;;;;;;5089286;28;20519;-56
2023/07/04 00:25:52;;;;;;;8.83;4.33;;;13.10;1.00;;;;;;5022847;28;20456;-55
2023/07/04 00:28:18;;;;;;;6.70;3.90;;;13.20;1.00;;;;;;5011370;28;20442;-56
2023/07/04 00:30:44;;;;;;;7.80;4.10;;;13.10;1.00;;;;;;5002730;28;20431;-55
2023/07/04 00:33:13;;;;;;;8.60;3.83;;;13.10;1.00;;;;;;5003062;28;20426;-56
2023/07/04 00:35:39;;;;;;;9.60;4.17;;;13.10;1.00;;;;;;4993839;28;20468;-56
2023/07/04 00:38:05;;;;;;;12.20;4.03;;;13.10;1.00;;;;;;4994249;28;20554;-56
2023/07/04 00:40:31;;;;;;;7.93;4.00;;;13.10;1.00;;;;;;4994146;28;20457;-56
2023/07/04 00:43:03;;;;;;;12.07;4.27;;;13.10;1.00;;;;;;4998522;28;20427;-56
2023/07/04 00:45:33;;;;;;;6.50;3.90;;;13.10;1.00;;;;;;5013822;28;20416;-55
2023/07/04 00:48:03;;;;;;;6.90;3.37;;;13.10;1.00;;;;;;4995948;28;20531;-55
2023/07/04 00:50:32;;;;;;;9.57;3.80;;;13.10;1.00;;;;;;4993767;28;20777;-55
2023/07/04 00:53:02;;;;;;;10.90;3.60;;;13.00;1.00;;;;;;4993929;28;20474;-56
2023/07/04 00:55:30;;;;;;;5.20;3.33;;;13.00;3.90;;;;;;4993552;28;20472;-55
2023/07/04 00:57:55;;;;;;;9.67;3.87;;;12.90;1.00;;;;;;4993896;28;20475;-56
2023/07/04 01:00:23;;;;;;;5.90;3.30;;;12.90;25.10;;;;;;4993998;28;20420;-56
2023/07/04 01:02:59;;;;;;;6.07;3.40;;;12.90;53.80;;;;;;4993523;28;20247;-56
2023/07/04 01:05:53;;;;;;;6.73;3.03;;;12.90;76.40;;;;;;4993835;28;20397;-55
2023/07/04 01:08:32;;;;;;;5.73;3.30;;;12.90;30.60;;;;;;4993888;28;20436;-56
2023/07/04 01:11:02;;;;;;;7.47;3.20;;;12.90;24.40;;;;;;4993601;28;20411;-56
2023/07/04 01:13:28;;;;;;;9.97;3.10;;;12.90;1.00;;;;;;4993296;28;20904;-55
2023/07/04 01:15:54;;;;;;;8.20;3.23;;;12.90;1.00;;;;;;4993497;28;20555;-56
2023/07/04 01:18:21;;;;;;;6.70;3.00;;;12.90;1.00;;;;;;4993723;28;20999;-56
2023/07/04 01:20:48;;;;;;;5.47;3.20;;;12.90;1.00;;;;;;5000132;28;20193;-56
2023/07/04 01:23:28;;;;;;;7.30;2.83;;;12.90;1.00;;;;;;4991793;28;20860;-56
2023/07/04 01:26:10;;;;;;;5.63;3.17;;;12.90;99.90;;;;;;5053443;28;20788;-55
2023/07/04 01:28:37;;;;;;;5.77;2.97;;;12.90;99.90;;;;;;5093103;28;20442;-56
2023/07/04 01:31:05;;;;;;;7.73;2.73;;;12.90;99.90;;;;;;5012471;28;20452;-56
2023/07/04 01:33:31;;;;;;;8.20;3.00;;;12.90;99.90;;;;;;5079431;28;20837;-55
2023/07/04 01:35:56;;;;;;;8.30;2.23;;;12.90;1.00;;;;;;5077505;28;20463;-56
2023/07/04 01:38:22;;;;;;;6.77;2.57;;;12.80;99.90;;;;;;5009045;28;20189;-55
2023/07/04 01:40:48;;;;;;;4.83;2.67;;;12.70;1.00;;;;;;5034122;28;20190;-56
2023/07/04 01:43:13;;;;;;;6.97;2.80;;;12.70;1.00;;;;;;5010148;28;20282;-56
2023/07/04 01:45:39;;;;;;;10.10;2.70;;;12.70;1.00;;;;;;5070142;28;20189;-56
2023/07/04 01:48:06;;;;;;;5.73;2.13;;;12.70;99.90;;;;;;5092120;28;20555;-56
2023/07/04 01:50:32;;;;;;;12.87;2.80;;;12.70;99.90;;;;;;5092102;28;20575;-55
2023/07/04 01:52:57;;;;;;;8.17;2.33;;;12.60;1.00;;;;;;5092488;28;20454;-56
2023/07/04 01:55:23;;;;;;;6.40;2.80;;;12.70;1.00;;;;;;5026516;28;20262;-56
2023/07/04 01:57:49;;;;;;;10.57;2.63;;;12.60;99.90;;;;;;5086733;28;20203;-55
2023/07/04 02:00:15;;;;;;;3.50;2.30;;;12.60;1.00;;;;;;5084652;28;20192;-56
2023/07/04 02:02:40;;;;;;;9.83;2.70;;;12.60;1.00;;;;;;5092399;28;20190;-55
2023/07/04 02:05:07;;;;;;;6.00;2.33;;;12.50;1.00;;;;;;5087362;28;20708;-56
2023/07/04 02:07:32;;;;;;;4.47;2.37;;;12.50;1.00;;;;;;5093418;28;20226;-55
2023/07/04 02:09:58;;;;;;;9.47;2.40;;;12.50;1.00;;;;;;5091601;28;20481;-55
2023/07/04 02:12:23;;;;;;;10.60;3.63;;;12.50;1.00;;;;;;5028532;28;20188;-55
2023/07/04 02:14:49;;;;;;;11.17;2.93;;;12.50;1.00;;;;;;5068080;28;20268;-55
2023/07/04 02:17:15;;;;;;;7.33;2.60;;;12.50;1.00;;;;;;5095105;28;20202;-55
2023/07/04 02:19:40;;;;;;;10.20;2.90;;;12.40;1.00;;;;;;5092311;28;20194;-55
2023/07/04 02:22:06;;;;;;;4.97;2.50;;;12.30;1.00;;;;;;5094683;28;20182;-56
2023/07/04 02:24:32;;;;;;;3.67;2.40;;;12.30;6.80;;;;;;5092217;28;20196;-55
2023/07/04 02:26:58;;;;;;;18.37;2.77;;;12.30;23.40;;;;;;5088848;28;20439;-55
2023/07/04 02:29:23;;;;;;;5.60;2.77;;;12.20;99.90;;;;;;5025783;28;20275;-56
2023/07/04 02:31:49;;;;;;;4.07;2.50;;;12.20;99.90;;;;;;5070099;28;20634;-56
2023/07/04 02:34:14;;;;;;;12.47;2.50;;;12.20;99.90;;;;;;4991361;28;20189;-56
2023/07/04 02:36:40;;;;;;;4.47;2.30;;;12.20;99.90;;;;;;5063995;28;20288;-55
2023/07/04 02:39:06;;;;;;;6.47;2.70;;;12.20;99.90;;;;;;5073628;28;20185;-55
2023/07/04 02:41:32;;;;;;;7.73;2.60;;;12.20;99.90;;;;;;5094840;28;20221;-55
2023/07/04 02:43:59;;;;;;;3.30;2.60;;;12.20;99.90;;;;;;5091537;28;20198;-55
2023/07/04 02:46:24;;;;;;;4.07;2.07;;;12.20;99.90;;;;;;5027299;28;20820;-54
2023/07/04 02:48:50;;;;;;;5.60;2.43;;;12.20;99.90;;;;;;5032878;28;20440;-55
2023/07/04 02:51:16;;;;;;;13.57;2.80;;;12.10;99.90;;;;;;5094091;28;20177;-55
2023/07/04 02:53:41;;;;;;;7.73;2.77;;;12.10;99.90;;;;;;5091202;28;20645;-55
2023/07/04 02:56:07;;;;;;;11.70;3.10;;;12.10;99.90;;;;;;5091389;28;20219;-55
2023/07/04 02:58:33;;;;;;;7.47;3.07;;;12.10;99.90;;;;;;5050423;28;20667;-55
2023/07/04 03:01:01;;;;;;;5.70;2.47;;;12.10;99.90;;;;;;5003056;28;20415;-56
2023/07/04 03:03:27;;;;;;;6.90;2.40;;;12.20;99.90;;;;;;5049647;28;20423;-55
2023/07/04 03:05:53;;;;;;;9.13;2.80;;;12.20;99.90;;;;;;5088602;28;20531;-55
2023/07/04 03:08:19;;;;;;;9.07;3.27;;;12.10;99.90;;;;;;5069827;28;20614;-55
2023/07/04 03:10:48;;;;;;;8.50;2.60;;;12.20;99.90;;;;;;4999317;28;20196;-55
2023/07/04 03:13:14;;;;;;;11.33;3.40;;;12.10;99.90;;;;;;5018314;28;20189;-55
2023/07/04 03:15:40;;;;;;;6.50;3.00;;;12.20;99.90;;;;;;5082758;28;20472;-55
2023/07/04 03:18:08;;;;;;;10.07;3.37;;;12.20;99.90;;;;;;5091410;28;20432;-55
2023/07/04 03:20:34;;;;;;;9.63;3.47;;;12.20;99.90;;;;;;5019553;28;20460;-55
2023/07/04 03:22:59;;;;;;;10.10;3.70;;;12.20;99.90;;;;;;5062024;28;20470;-55
2023/07/04 03:25:25;;;;;;;8.67;4.33;;;12.20;99.90;;;;;;5079991;28;20440;-54
2023/07/04 03:27:51;;;;;;;12.30;4.40;;;12.20;99.90;;;;;;5085116;28;20636;-54
2023/07/04 03:30:17;;;;;;;10.33;4.27;;;12.30;99.90;;;;;;5030010;28;20205;-56
2023/07/04 03:32:43;;;;;;;8.23;4.07;;;12.30;99.90;;;;;;5004378;28;20215;-55
2023/07/04 03:35:08;;;;;;;12.13;4.60;;;12.30;99.90;;;;;;4991581;28;20451;-54
2023/07/04 03:37:36;;;;;;;16.13;4.67;;;12.30;99.90;;;;;;4991065;28;20551;-54
2023/07/04 03:40:08;;;;;;;10.87;4.27;;;12.30;99.90;;;;;;4991226;28;20195;-55
2023/07/04 03:42:38;;;;;;;12.30;4.40;;;12.30;99.90;;;;;;4991501;28;20887;-55
2023/07/04 03:45:05;;;;;;;10.33;4.57;;;12.30;99.90;;;;;;4991494;28;20410;-55
2023/07/04 03:47:32;;;;;;;8.50;4.97;;;12.30;99.90;;;;;;4991592;28;20535;-55
2023/07/04 03:49:58;;;;;;;7.57;4.63;;;12.40;99.90;;;;;;4991047;28;20979;-55
2023/07/04 03:52:24;;;;;;;8.07;4.87;;;12.30;99.90;;;;;;4991045;28;20424;-55
2023/07/04 03:54:49;;;;;;;13.53;5.67;;;12.40;99.90;;;;;;4990770;28;20483;-55
2023/07/04 03:57:15;;;;;;;15.27;5.87;;;12.40;99.90;;;;;;4991049;28;20248;-55
2023/07/04 03:59:41;;;;;;;10.03;5.13;;;12.30;99.90;;;;;;4991339;28;20208;-56
2023/07/04 04:02:06;;;;;;;12.10;5.40;;;12.40;99.90;;;;;;4991219;28;20268;-55
2023/07/04 04:04:39;;;;;;;13.57;5.53;;;12.40;99.90;;;;;;4991172;28;20181;-55
2023/07/04 04:07:09;;;;;;;11.90;5.87;;;12.40;99.90;;;;;;4991304;28;20226;-55
2023/07/04 04:09:36;;;;;;;12.17;5.97;;;12.40;99.90;;;;;;4991647;28;20778;-56
2023/07/04 04:12:02;;;;;;;14.33;6.10;;;12.40;99.90;;;;;;4994244;28;20577;-55
2023/07/04 04:14:29;;;;;;;10.63;5.30;;;12.50;99.90;;;;;;4994314;28;20800;-54
2023/07/04 04:16:56;;;;;;;14.40;5.67;;;12.50;99.90;;;;;;4993997;28;20806;-55
2023/07/04 04:19:21;;;;;;;17.97;6.77;;;12.50;99.90;;;;;;4994032;28;20529;-55
2023/07/04 04:21:47;;;;;;;13.63;6.30;;;12.60;99.90;;;;;;4993985;28;20500;-55
2023/07/04 04:24:13;;;;;;;16.13;5.80;;;12.60;99.90;;;;;;4999348;28;20188;-55
2023/07/04 04:26:40;;;;;;;14.17;6.37;;;12.60;99.90;;;;;;5013841;28;20191;-55
2023/07/04 04:29:06;;;;;;;12.93;6.57;;;12.70;99.90;;;;;;4994990;28;20706;-55
2023/07/04 04:31:37;;;;;;;12.87;6.53;;;12.80;99.90;;;;;;5060696;28;20964;-55
2023/07/04 04:34:03;;;;;;;10.27;6.57;;;12.80;99.90;;;;;;4993131;28;20448;-55
2023/07/04 04:36:30;;;;;;;22.67;5.87;;;12.90;99.90;;;;;;4998158;28;20471;-54
2023/07/04 04:38:56;;;;;;;9.60;5.67;;;12.90;99.90;;;;;;5038200;28;20432;-55
2023/07/04 04:41:21;;;;;;;14.47;5.47;;;12.90;99.90;;;;;;5092622;28;20458;-55
2023/07/04 04:43:50;;;;;;;11.70;4.90;;;12.90;99.90;;;;;;5093965;28;20194;-55
2023/07/04 04:46:16;;;;;;;12.37;5.03;;;12.90;99.90;;;;;;4992795;28;20242;-55
2023/07/04 04:48:42;;;;;;;12.30;4.70;;;12.90;99.90;;;;;;5029895;28;20527;-56
2023/07/04 04:51:10;;;;;;;13.93;5.23;;;12.90;99.90;;;;;;5093284;28;20440;-54
2023/07/04 04:53:37;;;;;;;13.73;4.90;;;13.00;99.90;;;;;;5078616;28;20831;-54
2023/07/04 04:56:04;;;;;;;13.67;4.80;;;13.20;99.90;;;;;;5083924;28;20470;-56
2023/07/04 04:58:30;;;;;;;17.33;4.87;;;13.40;99.90;;;;;;5058447;28;20475;-55
2023/07/04 05:00:55;;;;;;;15.23;4.47;;;13.50;99.90;;;;;;5002837;28;20440;-55
2023/07/04 05:03:21;;;;;;;16.90;4.10;;;13.60;1.00;;;;;;4993951;28;20440;-56
2023/07/04 05:05:47;;;;;;;10.53;4.17;;;13.60;1.00;;;;;;4994197;28;20189;-56
2023/07/04 05:08:12;;;;;;;10.77;4.10;;;13.80;99.90;;;;;;4993587;28;20179;-56
2023/07/04 05:10:38;;;;;;;10.67;4.07;;;13.90;1.00;;;;;;5002186;28;20177;-56
2023/07/04 05:13:04;;;;;;;7.00;3.93;;;14.00;99.90;;;;;;5034582;28;20424;-56
2023/07/04 05:15:30;;;;;;;12.00;4.30;;;14.10;1.00;;;;;;5096146;28;20171;-56
2023/07/04 05:17:56;;;;;;;13.00;4.27;;;14.10;99.90;;;;;;5066458;28;20424;-55
2023/07/04 05:20:25;;;;;;;10.80;4.83;;;14.30;99.90;;;;;;4991334;28;20189;-56
2023/07/04 05:22:56;;;;;;;9.00;4.17;;;14.40;1.00;;;;;;4992707;28;20796;-56
2023/07/04 05:25:22;;;;;;;8.10;3.80;;;14.50;39.90;;;;;;4993667;28;20425;-56
2023/07/04 05:27:50;;;;;;;8.27;3.60;;;14.50;1.00;;;;;;4993057;28;20432;-57
2023/07/04 05:30:15;;;;;;;10.80;4.60;;;14.60;99.90;;;;;;5000552;28;20543;-56
2023/07/04 05:32:41;;;;;;;9.33;3.77;;;14.70;1.00;;;;;;5012820;28;20500;-56
2023/07/04 05:35:07;;;;;;;13.00;4.90;;;14.80;1.00;;;;;;5004835;28;20219;-57
2023/07/04 05:37:33;;;;;;;11.83;3.93;;;14.90;1.00;;;;;;5012669;28;20676;-56
2023/07/04 05:39:59;;;;;;;11.60;4.07;;;15.10;99.90;;;;;;4999280;28;20442;-55
2023/07/04 05:42:25;;;;;;;7.93;4.03;;;15.20;1.30;;;;;;5012365;28;20197;-55
2023/07/04 05:44:51;;;;;;;7.40;4.10;;;15.30;1.00;;;;;;5012581;28;20410;-57
2023/07/04 05:47:16;;;;;;;10.37;4.10;;;15.30;99.90;;;;;;5006509;28;20775;-56
2023/07/04 05:49:42;;;;;;;8.73;3.60;;;15.40;99.90;;;;;;5010024;28;20642;-57
2023/07/04 05:52:08;;;;;;;8.90;3.80;;;15.50;99.90;;;;;;5012401;28;20229;-57
2023/07/04 05:54:33;;;;;;;16.47;4.70;;;15.60;99.90;;;;;;5012301;28;20242;-57
2023/07/04 05:56:59;;;;;;;11.70;4.37;;;15.80;99.90;;;;;;4995190;28;20242;-56
2023/07/04 05:59:24;;;;;;;8.77;3.50;;;15.90;94.10;;;;;;5022591;28;20209;-53
2023/07/04 06:01:51;;;;;;;9.40;3.70;;;16.00;23.10;;;;;;4979933;28;20287;-56
2023/07/04 06:04:17;;;;;;;7.03;3.40;;;16.10;30.10;;;;;;4983453;28;20195;-56
2023/07/04 06:06:44;;;;;;;10.63;3.80;;;16.20;1.00;;;;;;4990244;28;20541;-56
2023/07/04 06:09:12;;;;;;;8.73;4.20;;;16.20;1.00;;;;;;5060570;28;20580;-57
2023/07/04 06:11:45;;;;;;;10.60;3.83;;;16.20;1.00;;;;;;5021058;28;20801;-55
2023/07/04 06:14:14;;;;;;;10.83;4.20;;;16.20;1.00;;;;;;5076844;28;20524;-55
2023/07/04 06:16:40;;;;;;;8.70;3.57;;;16.20;1.00;;;;;;4990277;28;20483;-56
2023/07/04 06:19:05;;;;;;;11.70;3.33;;;16.40;1.00;;;;;;5001470;28;20426;-57
2023/07/04 06:21:31;;;;;;;8.47;4.37;;;16.60;1.00;;;;;;4990427;28;20223;-56
2023/07/04 06:23:57;;;;;;;8.97;3.63;;;16.70;1.00;;;;;;4991882;28;20211;-57
2023/07/04 06:26:27;;;;;;;10.13;3.97;;;16.90;1.00;;;;;;5001483;28;20208;-55
2023/07/04 06:28:53;;;;;;;8.53;3.23;;;17.00;1.00;;;;;;5059387;28;20660;-56
2023/07/04 06:31:18;;;;;;;5.73;3.43;;;16.90;1.00;;;;;;5015072;28;20525;-57
2023/07/04 06:33:45;;;;;;;19.93;3.53;;;16.90;1.00;;;;;;5018773;28;20930;-57
2023/07/04 06:36:13;;;;;;;9.00;3.70;;;16.90;1.00;;;;;;5080213;28;20678;-56
2023/07/04 06:38:38;;;;;;;9.73;3.30;;;16.90;1.00;;;;;;5072795;28;20450;-56
2023/07/04 06:41:07;;;;;;;8.17;3.30;;;16.90;1.00;;;;;;5078421;28;20582;-55
2023/07/04 06:43:34;;;;;;;8.70;3.20;;;17.20;1.00;;;;;;5090366;28;20597;-56
2023/07/04 06:46:00;;;;;;;12.53;3.37;;;17.40;1.00;;;;;;5094127;28;20427;-56
2023/07/04 06:48:27;;;;;;;7.50;3.10;;;17.30;1.00;;;;;;5055148;28;20451;-55
2023/07/04 06:51:00;;;;;;;7.23;4.07;;;17.20;1.00;;;;;;5087543;28;20474;-56
2023/07/04 06:53:26;;;;;;;5.10;2.63;;;17.10;1.00;;;;;;5047309;28;20435;-57
2023/07/04 06:55:53;;;;;;;8.20;3.40;;;17.20;1.00;;;;;;5094010;28;20450;-57
2023/07/04 06:58:19;;;;;;;6.50;2.63;;;17.10;1.00;;;;;;5091332;28;20422;-53
2023/07/04 07:00:45;;;;;;;22.67;3.67;;;17.30;1.00;;;;;;5094595;28;20419;-56
2023/07/04 07:03:11;;;;;;;6.30;3.23;;;17.20;1.00;;;;;;5094411;28;20415;-56
2023/07/04 07:05:38;;;;;;;4.70;2.90;;;17.20;1.00;;;;;;5091288;28;20441;-57
2023/07/04 07:08:04;;;;;;;10.70;3.57;;;17.30;1.00;;;;;;5067678;28;20193;-57
2023/07/04 07:10:31;;;;;;;6.90;3.50;;;17.40;1.00;;;;;;5094125;28;20492;-57
2023/07/04 07:12:57;;;;;;;8.83;3.77;;;17.60;1.00;;;;;;5092554;28;20234;-57
2023/07/04 07:15:23;;;;;;;7.90;3.23;;;17.80;1.00;;;;;;5094050;28;20560;-58
2023/07/04 07:17:49;;;;;;;8.40;3.10;;;18.10;1.00;;;;;;5083558;28;20572;-56
2023/07/04 07:20:14;;;;;;;7.40;3.20;;;18.20;1.00;;;;;;5093936;28;20183;-59
2023/07/04 07:22:40;;;;;;;9.40;4.20;;;18.10;1.00;;;;;;5087193;28;20180;-59
2023/07/04 07:25:06;;;;;;;10.47;3.13;;;18.00;1.00;;;;;;5011983;28;20179;-59
2023/07/04 07:27:31;;;;;;;5.63;3.13;;;18.00;1.00;;;;;;5093875;28;20276;-58
2023/07/04 07:29:57;;;;;;;5.77;3.20;;;18.00;1.00;;;;;;5063948;28;20447;-59
2023/07/04 07:32:22;;;;;;;12.73;4.13;;;17.90;1.00;;;;;;5087526;28;20192;-57
2023/07/04 07:34:48;;;;;;;7.70;3.57;;;17.80;1.00;;;;;;5051034;28;20614;-58
2023/07/04 07:37:13;;;;;;;6.80;3.50;;;17.70;1.00;;;;;;5084754;28;20219;-59
2023/07/04 07:39:40;;;;;;;7.13;3.40;;;17.80;1.00;;;;;;5094186;28;20212;-58
2023/07/04 07:42:06;;;;;;;9.30;3.40;;;17.90;1.00;;;;;;5088437;28;20196;-58
2023/07/04 07:44:31;;;;;;;9.20;3.73;;;18.00;1.00;;;;;;5094665;28;20463;-57
2023/07/04 07:46:57;;;;;;;4.67;3.90;;;18.10;1.00;;;;;;5095365;28;20198;-57
2023/07/04 07:49:23;;;;;;;6.50;3.70;;;18.00;1.00;;;;;;5095097;28;20672;-57
2023/07/04 07:51:48;;;;;;;6.37;3.47;;;17.80;1.00;;;;;;5098194;28;20263;-57
2023/07/04 07:54:14;;;;;;;8.43;3.40;;;17.80;1.00;;;;;;5091341;28;20681;-57
2023/07/04 07:56:44;;;;;;;12.80;4.33;;;17.80;1.00;;;;;;5097553;28;20215;-58
2023/07/04 07:59:10;;;;;;;6.00;3.50;;;18.00;1.00;;;;;;5072517;28;20439;-58
2023/07/04 08:01:36;;;;;;;8.37;3.50;;;18.30;1.00;;;;;;5097905;28;20422;-57
2023/07/04 08:04:04;;;;;;;5.63;4.00;;;18.30;1.00;;;;;;5094906;28;20454;-58
2023/07/04 08:06:38;;;;;;;6.90;3.90;;;18.30;1.00;;;;;;5097396;28;20419;-57
2023/07/04 08:09:06;;;;;;;9.97;4.17;;;18.40;1.00;;;;;;5094716;28;20442;-59
2023/07/04 08:11:32;;;;;;;6.43;3.60;;;18.40;1.00;;;;;;5097304;28;20409;-58
2023/07/04 08:13:58;;;;;;;5.30;3.53;;;18.50;1.00;;;;;;5085609;28;20446;-60
2023/07/04 08:16:30;;;;;;;6.20;3.10;;;18.50;1.00;;;;;;5094027;28;20984;-59
2023/07/04 08:18:58;;;;;;;7.80;3.60;;;18.30;1.00;;;;;;5028183;28;20468;-59
2023/07/04 08:21:26;;;;;;;6.80;3.90;;;17.90;1.00;;;;;;4994639;28;20419;-58
2023/07/04 08:23:51;;;;;;;9.47;3.80;;;17.70;1.00;;;;;;5055986;28;20538;-59
2023/07/04 08:26:20;;;;;;;8.33;3.63;;;17.70;1.00;;;;;;5096802;28;20421;-59
2023/07/04 08:28:45;;;;;;;9.17;3.97;;;18.20;1.00;;;;;;5034817;28;20523;-58
2023/07/04 08:31:11;;;;;;;8.83;3.30;;;18.70;1.00;;;;;;5073149;28;20442;-58
2023/07/04 08:33:37;;;;;;;6.23;3.70;;;19.00;1.00;;;;;;5096901;28;20185;-58
2023/07/04 08:36:08;;;;;;;5.63;2.97;;;19.40;1.00;;;;;;5094145;28;20558;-59
2023/07/04 08:38:33;;;;;;;6.93;2.63;;;19.30;1.00;;;;;;5096587;28;20628;-58
2023/07/04 08:41:00;;;;;;;7.40;2.60;;;19.00;1.00;;;;;;5093557;28;20449;-58
2023/07/04 08:43:40;;;;;;;6.20;2.67;;;18.80;1.00;;;;;;5097085;28;20249;-58
2023/07/04 08:46:09;;;;;;;5.57;2.90;;;18.90;1.00;;;;;;5093669;28;20450;-59
2023/07/04 08:48:35;;;;;;;6.80;2.53;;;19.00;1.00;;;;;;5096678;28;20835;-58
2023/07/04 08:51:03;;;;;;;7.43;2.40;;;19.20;1.00;;;;;;5089687;28;20457;-60
2023/07/04 08:53:30;;;;;;;9.60;2.60;;;19.30;1.00;;;;;;5088408;28;20530;-60
2023/07/04 08:55:58;;;;;;;4.53;2.23;;;19.20;1.00;;;;;;5095870;28;20455;-59
2023/07/04 08:58:30;;;;;;;5.83;2.70;;;19.30;1.00;;;;;;5091305;28;20508;-59
2023/07/04 09:00:59;;;;;;;11.63;2.90;;;19.20;1.00;;;;;;5096587;28;20881;-59
2023/07/04 09:03:44;;;;;;;5.87;2.67;;;19.10;1.00;;;;;;5062658;28;20980;-59
2023/07/04 09:06:24;;;;;;;8.43;2.90;;;19.10;1.00;;;;;;4993871;28;20460;-59
2023/07/04 09:09:10;;;;;;;5.30;2.70;;;19.20;1.00;;;;;;4992578;28;20443;-58
2023/07/04 09:11:36;;;;;;;6.37;2.20;;;19.40;1.00;;;;;;4993361;28;20420;-58
2023/07/04 09:14:28;;;;;;;5.30;2.30;;;19.60;1.00;;;;;;5072405;28;20525;-58
2023/07/04 09:16:56;;;;;;;3.77;2.07;;;19.50;1.00;;;;;;5096241;28;20477;-58
2023/07/04 09:19:22;;;;;;;8.00;2.43;;;19.40;1.00;;;;;;5088913;28;20449;-57
2023/07/04 09:21:48;;;;;;;5.13;2.40;;;19.20;1.00;;;;;;5096227;28;20410;-58
2023/07/04 09:24:14;;;;;;;4.43;2.30;;;19.00;1.00;;;;;;5092869;28;20644;-58
2023/07/04 09:26:55;;;;;;;4.77;2.00;;;18.90;1.00;;;;;;5095942;28;20413;-58
2023/07/04 09:29:23;;;;;;;4.37;1.73;;;19.40;1.00;;;;;;5092815;28;20203;-58
2023/07/04 09:31:58;;;;;;;3.70;1.97;;;19.40;1.00;;;;;;5096110;28;20411;-58
2023/07/04 09:34:31;;;;;;;4.50;1.80;;;19.10;1.00;;;;;;5093011;28;20864;-58
2023/07/04 09:36:57;;;;;;;6.50;2.27;;;18.60;1.00;;;;;;5095693;28;20459;-57
2023/07/04 09:39:24;;;;;;;2.90;2.07;;;18.50;1.00;;;;;;5021440;28;20499;-57
2023/07/04 09:41:57;;;;;;;3.40;2.00;;;18.60;1.00;;;;;;4992944;28;20456;-58
2023/07/04 09:44:29;;;;;;;8.10;3.13;;;19.30;1.00;;;;;;5059685;28;20534;-59
2023/07/04 09:46:58;;;;;;;6.87;2.10;;;20.60;1.00;;;;;;5095517;28;20461;-58
2023/07/04 09:49:25;;;;;;;1.87;1.60;;;21.50;1.00;;;;;;5092700;28;20439;-59
2023/07/04 09:52:01;;;;;;;5.23;1.80;;;21.70;1.00;;;;;;5095211;28;20421;-59
2023/07/04 09:54:27;;;;;;;2.20;1.70;;;22.10;99.90;;;;;;5092436;28;20472;-59
2023/07/04 09:56:53;;;;;;;4.30;1.90;;;22.40;99.90;;;;;;5076744;28;21000;-58
2023/07/04 09:59:26;;;;;;;3.20;2.10;;;22.20;99.90;;;;;;5095513;28;20424;-59
2023/07/04 10:02:11;;;;;;;4.97;1.80;;;22.30;99.90;;;;;;5093728;28;20210;-57
2023/07/04 10:04:38;;;;;;;5.23;1.70;;;22.70;99.90;;;;;;4991621;28;20925;-59
2023/07/04 10:07:12;;;;;;;3.17;1.90;;;22.50;99.90;;;;;;4992322;28;20823;-58
2023/07/04 10:09:56;;;;;;;2.53;1.60;;;22.50;99.90;;;;;;5078144;28;20443;-58
2023/07/04 10:12:23;;;;;;;2.90;1.80;;;22.50;99.90;;;;;;5086137;28;20446;-58
2023/07/04 10:14:57;;;;;;;3.63;1.63;;;22.10;99.90;;;;;;5095077;28;20414;-58
2023/07/04 10:17:28;;;;;;;4.10;1.43;;;21.60;99.90;;;;;;5083951;28;20966;-58
2023/07/04 10:20:08;;;;;;;4.20;1.67;;;21.30;99.90;;;;;;5095016;28;20512;-59
2023/07/04 10:22:38;;;;;;;4.87;1.83;;;21.60;99.90;;;;;;5091881;28;20449;-60
2023/07/04 10:25:14;;;;;;;1.83;1.43;;;21.30;99.90;;;;;;5094986;28;20427;-58
2023/07/04 10:27:42;;;;;;;2.60;1.50;;;21.10;99.90;;;;;;5091941;28;20451;-57
2023/07/04 10:30:16;;;;;;;5.03;1.93;;;21.30;99.90;;;;;;5094596;28;20946;-58
2023/07/04 10:32:55;;;;;;;3.10;1.70;;;21.60;99.90;;;;;;5090755;28;20437;-57
2023/07/04 10:35:24;;;;;;;3.63;1.30;;;21.80;99.90;;;;;;5092064;28;20418;-57
2023/07/04 10:37:59;;;;;;;5.03;1.60;;;21.90;99.90;;;;;;4995199;28;20479;-59
2023/07/04 10:40:27;;;;;;;2.57;1.57;;;22.40;99.90;;;;;;4992589;28;20414;-59
2023/07/04 10:42:58;;;;;;;2.63;1.20;;;22.70;99.90;;;;;;5074742;28;20506;-57
2023/07/04 10:45:26;;;;;;;5.83;1.57;;;22.50;99.90;;;;;;5094250;28;20962;-58
2023/07/04 10:47:57;;;;;;;5.00;1.30;;;22.20;99.90;;;;;;5091672;28;20455;-57
2023/07/04 10:50:32;;;;;;;2.67;1.47;;;22.00;99.90;;;;;;5094473;28;20744;-57
2023/07/04 10:52:57;;;;;;;3.40;1.30;;;21.90;99.90;;;;;;5091788;28;20435;-57
2023/07/04 10:55:49;;;;;;;4.90;1.40;;;21.90;99.90;;;;;;5093878;28;21051;-57
2023/07/04 10:58:19;;;;;;;4.80;1.30;;;21.90;99.90;;;;;;5091641;28;20194;-58
2023/07/04 11:01:12;;;;;;;3.13;1.60;;;21.80;99.90;;;;;;5094606;28;20408;-58
2023/07/04 11:03:58;;;;;;;3.33;1.10;;;22.40;99.90;;;;;;5088806;28;20457;-58
2023/07/04 11:06:45;;;;;;;2.10;1.50;;;22.90;99.90;;;;;;5067770;28;20801;-58
2023/07/04 11:09:16;;;;;;;6.33;1.47;;;22.60;99.90;;;;;;5094208;28;20426;-58
2023/07/04 11:11:47;;;;;;;3.20;1.30;;;22.00;99.90;;;;;;5090596;28;20449;-58
2023/07/04 11:14:21;;;;;;;4.23;1.20;;;22.10;99.90;;;;;;5093783;28;20407;-59
2023/07/04 11:16:46;;;;;;;1.30;1.00;;;23.00;99.90;;;;;;5091397;28;20823;-57
2023/07/04 11:19:17;;;;;;;3.27;1.07;;;24.30;99.90;;;;;;5093770;28;20421;-57
2023/07/04 11:22:02;;;;;;;2.47;0.80;;;25.10;99.90;;;;;;5091497;28;20189;-57
2023/07/04 11:24:43;;;;;;;4.80;0.90;;;25.60;99.90;;;;;;5093939;28;20427;-56
2023/07/04 11:27:24;;;;;;;1.57;1.10;;;24.90;99.90;;;;;;5008622;28;20486;-55
2023/07/04 11:29:58;;;;;;;1.70;1.00;;;23.50;99.90;;;;;;4995623;28;20493;-55
2023/07/04 11:32:51;;;;;;;1.93;1.03;;;22.60;99.90;;;;;;5060532;28;20942;-58
2023/07/04 11:35:23;;;;;;;1.50;1.10;;;21.80;99.90;;;;;;5093875;28;20413;-58
2023/07/04 11:37:54;;;;;;;1.93;1.20;;;20.30;99.90;;;;;;5092802;28;20471;-59
2023/07/04 11:40:54;;;;;;;3.07;0.97;;;19.40;99.90;;;;;;5006478;28;20532;-59
2023/07/04 11:43:29;;;;;;;1.63;1.23;;;18.70;99.90;;;;;;5012546;28;20451;-57
2023/07/04 11:45:56;;;;;;;3.90;1.40;;;18.20;99.90;;;;;;5054827;28;20451;-59
2023/07/04 11:48:26;;;;;;;1.20;1.10;;;17.90;99.90;;;;;;5026493;28;20942;-58
2023/07/04 11:51:00;;;;;;;6.33;1.27;;;18.10;99.90;;;;;;4986678;28;20435;-57
2023/07/04 11:53:46;;;;;;;2.70;1.20;;;18.50;99.90;;;;;;4994053;28;20537;-56
2023/07/04 11:56:14;;;;;;;2.70;1.20;;;18.10;99.90;;;;;;4988937;28;20471;-59
2023/07/04 11:58:40;;;;;;;2.67;1.30;;;17.60;99.90;;;;;;4998726;28;20866;-58
2023/07/04 12:01:07;;;;;;;2.93;0.90;;;17.10;99.90;;;;;;5041048;28;20495;-59
2023/07/04 12:04:05;;;;;;;2.27;1.20;;;16.80;99.90;;;;;;5031458;28;20447;-58
2023/07/04 12:06:58;;;;;;;2.67;1.10;;;16.50;99.90;;;;;;5001083;28;20459;-58
2023/07/04 12:09:47;;;;;;;3.07;1.13;;;16.50;99.90;;;;;;4990693;28;20471;-57
2023/07/04 12:12:19;;;;;;;1.33;0.87;;;16.60;99.90;;;;;;5026239;28;20462;-59
2023/07/04 12:14:47;;;;;;;2.60;1.50;;;16.70;99.90;;;;;;5087719;28;20442;-59
2023/07/04 12:17:14;;;;;;;2.43;1.20;;;17.10;99.90;;;;;;5093351;28;20461;-57
2023/07/04 12:19:41;;;;;;;2.63;1.20;;;17.30;99.90;;;;;;5080163;28;20442;-59
2023/07/04 12:22:13;;;;;;;2.70;1.20;;;17.30;99.90;;;;;;5025189;28;20854;-58
2023/07/04 12:24:39;;;;;;;1.80;1.10;;;17.60;99.90;;;;;;5068653;28;20431;-59
2023/07/04 12:27:06;;;;;;;1.87;1.17;;;17.70;99.90;;;;;;5085230;28;20832;-57
2023/07/04 12:29:42;;;;;;;2.90;1.00;;;17.70;99.90;;;;;;5093380;28;20418;-58
2023/07/04 12:32:17;;;;;;;2.23;1.10;;;17.20;99.90;;;;;;5021567;28;20659;-60
2023/07/04 12:34:43;;;;;;;8.53;1.10;;;16.90;99.90;;;;;;5025908;28;20452;-57
2023/07/04 12:37:16;;;;;;;3.43;1.10;;;16.60;99.90;;;;;;5096564;28;20446;-59
2023/07/04 12:39:47;;;;;;;2.80;1.23;;;16.40;99.90;;;;;;5088081;28;20203;-58
2023/07/04 12:42:31;;;;;;;2.40;1.20;;;16.30;99.90;;;;;;5097134;28;20406;-58
2023/07/04 12:44:58;;;;;;;2.80;1.30;;;15.90;99.90;;;;;;5093747;28;20449;-58
2023/07/04 12:47:31;;;;;;;5.73;1.47;;;15.70;99.90;;;;;;5082057;28;20814;-56
2023/07/04 12:49:57;;;;;;;1.67;1.23;;;15.50;99.90;;;;;;4993420;28;20533;-58
2023/07/04 12:52:32;;;;;;;3.20;1.40;;;15.20;1.00;;;;;;4993853;28;20509;-57
2023/07/04 12:55:01;;;;;;;3.67;1.43;;;14.90;1.00;;;;;;5096880;28;20504;-59
2023/07/04 12:57:29;;;;;;;1.73;1.10;;;14.80;1.00;;;;;;5061660;28;20851;-56